Terminal Aerodrome Forecast
Issued by NWS

Home | Current Version | Previous Version | Text Only | Print | Product List | Glossary On
Versions: 1 2 3 4 5 6 7 8 9 10 11 12 13 14 15 16 17 18 19 20
000
FTUS46 KPDT 222200 AAB
TAFPSC
TAF AMD
KPSC 222203Z 2222/2318 17015G25KT P6SM -SHRA SCT070 OVC090
     FM230300 19010KT P6SM -SHRA OVC070
     FM231500 21009KT P6SM VCSH BKN080=

USA.gov is the U.S. government's official web portal to all federal, state and local government web resources and services.